sensor_id;sensor_type;location;lat;lon;timestamp;pressure;altitude;pressure_sealevel;temperature;humidity
40155;BME280;25875;48.202;16.334;2022-12-05T00:00:23;99168.03;;;3.06;90.84
40155;BME280;25875;48.202;16.334;2022-12-05T00:02:50;99175.06;;;3.04;90.93
40155;BME280;25875;48.202;16.334;2022-12-05T00:05:17;99134.72;;;2.80;90.98
40155;BME280;25875;48.202;16.334;2022-12-05T00:07:43;99184.72;;;3.02;90.97
40155;BME280;25875;48.202;16.334;2022-12-05T00:10:10;99179.47;;;3.02;90.93
40155;BME280;25875;48.202;16.334;2022-12-05T00:12:39;99158.88;;;2.90;90.93
40155;BME280;25875;48.202;16.334;2022-12-05T00:15:11;99118.44;;;2.69;90.82
40155;BME280;25875;48.202;16.334;2022-12-05T00:17:42;99176.78;;;3.05;90.83
40155;BME280;25875;48.202;16.334;2022-12-05T00:20:09;99191.59;;;3.06;90.82
40155;BME280;25875;48.202;16.334;2022-12-05T00:22:37;99113.25;;;2.68;90.90
40155;BME280;25875;48.202;16.334;2022-12-05T00:25:05;99180.31;;;3.04;91.01
40155;BME280;25875;48.202;16.334;2022-12-05T00:27:33;99170.78;;;3.02;91.11
40155;BME280;25875;48.202;16.334;2022-12-05T00:30:01;99179.53;;;3.01;91.12
40155;BME280;25875;48.202;16.334;2022-12-05T00:32:28;99182.97;;;3.03;91.12
40155;BME280;25875;48.202;16.334;2022-12-05T00:34:55;99182.97;;;3.03;91.08
40155;BME280;25875;48.202;16.334;2022-12-05T00:37:22;99145.25;;;2.77;91.20
40155;BME280;25875;48.202;16.334;2022-12-05T00:39:49;99179.47;;;3.02;91.34
40155;BME280;25875;48.202;16.334;2022-12-05T00:42:16;99061.84;;;2.34;91.22
40155;BME280;25875;48.202;16.334;2022-12-05T00:44:43;99171.59;;;3.04;91.27
40155;BME280;25875;48.202;16.334;2022-12-05T00:47:11;99168.06;;;3.05;91.25
40155;BME280;25875;48.202;16.334;2022-12-05T00:49:38;99120.13;;;2.72;91.36
40155;BME280;25875;48.202;16.334;2022-12-05T00:52:04;99179.53;;;3.01;91.42
40155;BME280;25875;48.202;16.334;2022-12-05T00:54:31;99190.00;;;3.01;91.47
40155;BME280;25875;48.202;16.334;2022-12-05T00:56:58;99181.19;;;3.03;91.37
40155;BME280;25875;48.202;16.334;2022-12-05T00:59:24;99188.16;;;3.04;91.32
40155;BME280;25875;48.202;16.334;2022-12-05T01:01:52;99189.06;;;3.03;91.29
40155;BME280;25875;48.202;16.334;2022-12-05T01:04:22;99017.63;;;1.93;91.08
40155;BME280;25875;48.202;16.334;2022-12-05T01:06:50;99121.47;;;2.54;91.43
40155;BME280;25875;48.202;16.334;2022-12-05T01:09:19;99157.97;;;2.91;91.05
40155;BME280;25875;48.202;16.334;2022-12-05T01:11:47;99193.31;;;3.07;91.09
40155;BME280;25875;48.202;16.334;2022-12-05T01:14:15;99073.97;;;2.37;90.89
40155;BME280;25875;48.202;16.334;2022-12-05T01:16:47;99189.81;;;3.07;90.89
40155;BME280;25875;48.202;16.334;2022-12-05T01:19:15;99194.22;;;3.06;90.79
40155;BME280;25875;48.202;16.334;2022-12-05T01:21:43;99180.22;;;3.07;90.80
40155;BME280;25875;48.202;16.334;2022-12-05T01:24:13;99188.09;;;3.06;90.64
40155;BME280;25875;48.202;16.334;2022-12-05T01:26:41;99180.25;;;3.06;90.50
40155;BME280;25875;48.202;16.334;2022-12-05T01:29:08;99177.56;;;3.09;90.48
40155;BME280;25875;48.202;16.334;2022-12-05T01:31:36;99185.41;;;3.09;90.54
40155;BME280;25875;48.202;16.334;2022-12-05T01:34:06;99177.16;;;2.92;90.33
40155;BME280;25875;48.202;16.334;2022-12-05T01:36:33;99186.19;;;3.12;90.07
40155;BME280;25875;48.202;16.334;2022-12-05T01:39:03;99167.00;;;3.12;90.02
40155;BME280;25875;48.202;16.334;2022-12-05T01:41:32;99165.19;;;3.14;89.85
40155;BME280;25875;48.202;16.334;2022-12-05T01:44:02;99161.72;;;3.13;89.83
40155;BME280;25875;48.202;16.334;2022-12-05T01:46:31;99181.81;;;3.13;89.76
40155;BME280;25875;48.202;16.334;2022-12-05T01:49:03;99188.81;;;3.12;89.58
40155;BME280;25875;48.202;16.334;2022-12-05T01:51:31;99180.09;;;3.12;89.48
40155;BME280;25875;48.202;16.334;2022-12-05T01:54:00;99157.75;;;2.99;89.55
40155;BME280;25875;48.202;16.334;2022-12-05T01:56:28;99172.19;;;3.13;89.32
40155;BME280;25875;48.202;16.334;2022-12-05T01:58:57;99177.28;;;3.18;89.29
40155;BME280;25875;48.202;16.334;2022-12-05T02:01:25;99169.44;;;3.18;89.17
40155;BME280;25875;48.202;16.334;2022-12-05T02:03:54;99144.53;;;3.03;89.24
40155;BME280;25875;48.202;16.334;2022-12-05T02:06:23;99118.72;;;2.91;89.13
40155;BME280;25875;48.202;16.334;2022-12-05T02:08:51;99165.88;;;3.20;88.96
40155;BME280;25875;48.202;16.334;2022-12-05T02:11:21;99185.06;;;3.21;88.86
40155;BME280;25875;48.202;16.334;2022-12-05T02:14:02;99165.78;;;3.24;88.88
40155;BME280;25875;48.202;16.334;2022-12-05T02:16:44;99166.69;;;3.23;88.94
40155;BME280;25875;48.202;16.334;2022-12-05T02:22:45;99184.06;;;3.25;88.74
40155;BME280;25875;48.202;16.334;2022-12-05T02:25:48;99175.31;;;3.26;88.56
40155;BME280;25875;48.202;16.334;2022-12-05T02:28:42;99014.97;;;2.27;88.46
40155;BME280;25875;48.202;16.334;2022-12-05T02:31:15;99151.28;;;3.12;88.65
40155;BME280;25875;48.202;16.334;2022-12-05T02:33:46;99170.84;;;3.30;88.81
40155;BME280;25875;48.202;16.334;2022-12-05T02:36:17;99180.44;;;3.31;88.63
40155;BME280;25875;48.202;16.334;2022-12-05T02:38:51;99165.56;;;3.31;88.40
40155;BME280;25875;48.202;16.334;2022-12-05T02:41:26;99164.75;;;3.29;88.41
40155;BME280;25875;48.202;16.334;2022-12-05T02:44:00;99170.91;;;3.28;88.56
40155;BME280;25875;48.202;16.334;2022-12-05T02:46:31;99173.47;;;3.30;88.52
40155;BME280;25875;48.202;16.334;2022-12-05T02:49:04;99132.19;;;3.08;88.34
40155;BME280;25875;48.202;16.334;2022-12-05T02:51:37;99127.75;;;3.10;88.34
40155;BME280;25875;48.202;16.334;2022-12-05T02:54:07;99168.22;;;3.30;88.25
40155;BME280;25875;48.202;16.334;2022-12-05T02:56:36;99157.81;;;3.28;88.36
40155;BME280;25875;48.202;16.334;2022-12-05T02:59:03;99176.03;;;3.31;88.29
40155;BME280;25875;48.202;16.334;2022-12-05T03:01:31;99187.25;;;3.36;88.88
40155;BME280;25875;48.202;16.334;2022-12-05T03:04:01;99178.34;;;3.42;88.96
40155;BME280;25875;48.202;16.334;2022-12-05T03:06:30;99102.16;;;2.91;88.50
40155;BME280;25875;48.202;16.334;2022-12-05T03:09:00;99188.06;;;3.38;88.35
40155;BME280;25875;48.202;16.334;2022-12-05T03:11:31;99178.56;;;3.34;88.08
40155;BME280;25875;48.202;16.334;2022-12-05T03:14:02;99170.84;;;3.30;87.78
40155;BME280;25875;48.202;16.334;2022-12-05T03:16:37;99170.03;;;3.28;87.79
40155;BME280;25875;48.202;16.334;2022-12-05T03:19:11;99168.38;;;3.25;87.87
40155;BME280;25875;48.202;16.334;2022-12-05T03:21:44;99174.53;;;3.23;87.90
40155;BME280;25875;48.202;16.334;2022-12-05T03:24:13;99176.25;;;3.24;87.89
40155;BME280;25875;48.202;16.334;2022-12-05T03:26:49;99198.22;;;3.19;87.88
40155;BME280;25875;48.202;16.334;2022-12-05T03:29:26;99052.22;;;2.35;87.90
40155;BME280;25875;48.202;16.334;2022-12-05T03:32:05;99193.94;;;3.15;87.57
40155;BME280;25875;48.202;16.334;2022-12-05T03:34:42;99190.47;;;3.15;87.80
40155;BME280;25875;48.202;16.334;2022-12-05T03:37:15;99184.41;;;3.13;87.76
40155;BME280;25875;48.202;16.334;2022-12-05T03:39:48;99186.22;;;3.11;87.81
40155;BME280;25875;48.202;16.334;2022-12-05T03:42:27;99196.69;;;3.11;87.65
40155;BME280;25875;48.202;16.334;2022-12-05T03:44:59;99203.75;;;3.09;87.77
40155;BME280;25875;48.202;16.334;2022-12-05T03:47:32;99208.97;;;3.09;87.83
40155;BME280;25875;48.202;16.334;2022-12-05T03:50:06;99195.94;;;3.07;87.83
40155;BME280;25875;48.202;16.334;2022-12-05T03:52:40;99195.97;;;3.06;87.86
40155;BME280;25875;48.202;16.334;2022-12-05T03:55:10;99172.78;;;2.92;87.81
40155;BME280;25875;48.202;16.334;2022-12-05T03:57:42;99187.22;;;3.07;87.92
40155;BME280;25875;48.202;16.334;2022-12-05T04:00:15;99206.41;;;3.07;87.79
40155;BME280;25875;48.202;16.334;2022-12-05T04:02:49;99202.06;;;3.06;87.78
40155;BME280;25875;48.202;16.334;2022-12-05T04:05:21;99202.91;;;3.07;87.68
40155;BME280;25875;48.202;16.334;2022-12-05T04:07:55;99178.00;;;2.92;87.70
40155;BME280;25875;48.202;16.334;2022-12-05T04:10:26;99208.16;;;3.07;87.61
40155;BME280;25875;48.202;16.334;2022-12-05T04:12:56;99221.25;;;3.07;87.61
40155;BME280;25875;48.202;16.334;2022-12-05T04:15:27;99226.53;;;3.05;87.69
40155;BME280;25875;48.202;16.334;2022-12-05T04:18:20;99232.66;;;3.04;87.70
40155;BME280;25875;48.202;16.334;2022-12-05T04:20:49;99230.03;;;3.04;87.66
40155;BME280;25875;48.202;16.334;2022-12-05T04:23:34;99188.16;;;2.72;87.60
40155;BME280;25875;48.202;16.334;2022-12-05T04:26:06;99243.19;;;3.03;87.54
40155;BME280;25875;48.202;16.334;2022-12-05T04:28:38;99231.00;;;3.02;87.61
40155;BME280;25875;48.202;16.334;2022-12-05T04:31:14;99231.84;;;3.02;87.48
40155;BME280;25875;48.202;16.334;2022-12-05T04:33:45;99237.03;;;3.04;87.49
40155;BME280;25875;48.202;16.334;2022-12-05T04:36:18;99236.19;;;3.03;87.43
40155;BME280;25875;48.202;16.334;2022-12-05T04:38:51;99234.47;;;3.02;87.42
40155;BME280;25875;48.202;16.334;2022-12-05T04:41:21;99222.59;;;2.89;87.35
40155;BME280;25875;48.202;16.334;2022-12-05T04:43:51;99237.94;;;3.03;87.55
40155;BME280;25875;48.202;16.334;2022-12-05T04:46:20;99234.50;;;3.01;87.39
40155;BME280;25875;48.202;16.334;2022-12-05T04:48:52;99237.13;;;3.01;87.14
40155;BME280;25875;48.202;16.334;2022-12-05T04:51:23;99242.34;;;3.01;87.37
40155;BME280;25875;48.202;16.334;2022-12-05T04:54:00;99251.03;;;3.03;87.45
40155;BME280;25875;48.202;16.334;2022-12-05T04:56:31;99252.84;;;3.01;87.40
40155;BME280;25875;48.202;16.334;2022-12-05T04:59:00;99255.44;;;3.01;87.46
40155;BME280;25875;48.202;16.334;2022-12-05T05:01:30;99257.25;;;2.99;87.22
40155;BME280;25875;48.202;16.334;2022-12-05T05:04:06;99259.91;;;2.97;87.19
40155;BME280;25875;48.202;16.334;2022-12-05T05:06:36;99249.50;;;2.94;87.30
40155;BME280;25875;48.202;16.334;2022-12-05T05:09:03;99251.28;;;2.94;87.18
40155;BME280;25875;48.202;16.334;2022-12-05T05:11:31;99258.28;;;2.93;87.09
40155;BME280;25875;48.202;16.334;2022-12-05T05:13:59;99193.34;;;2.39;87.09
40155;BME280;25875;48.202;16.334;2022-12-05T05:16:27;99185.56;;;2.36;87.15
40155;BME280;25875;48.202;16.334;2022-12-05T05:18:55;99264.63;;;2.83;87.39
40155;BME280;25875;48.202;16.334;2022-12-05T05:21:25;99235.22;;;2.73;87.34
40155;BME280;25875;48.202;16.334;2022-12-05T05:23:53;99255.00;;;2.85;87.39
40155;BME280;25875;48.202;16.334;2022-12-05T05:26:21;99218.84;;;2.65;87.37
40155;BME280;25875;48.202;16.334;2022-12-05T05:28:48;99262.81;;;2.86;87.27
40155;BME280;25875;48.202;16.334;2022-12-05T05:31:15;99266.28;;;2.87;87.37
40155;BME280;25875;48.202;16.334;2022-12-05T05:33:42;99267.13;;;2.87;87.05
40155;BME280;25875;48.202;16.334;2022-12-05T05:36:12;99176.88;;;2.36;87.24
40155;BME280;25875;48.202;16.334;2022-12-05T05:38:42;99271.47;;;2.88;87.27
40155;BME280;25875;48.202;16.334;2022-12-05T05:41:11;99187.25;;;2.39;87.27
40155;BME280;25875;48.202;16.334;2022-12-05T05:43:38;99280.97;;;2.93;87.23
40155;BME280;25875;48.202;16.334;2022-12-05T05:46:05;99280.09;;;2.92;87.15
40155;BME280;25875;48.202;16.334;2022-12-05T05:48:32;99293.16;;;2.94;87.26
40155;BME280;25875;48.202;16.334;2022-12-05T05:51:03;99288.78;;;2.94;87.20
40155;BME280;25875;48.202;16.334;2022-12-05T05:53:30;99250.88;;;2.75;87.27
40155;BME280;25875;48.202;16.334;2022-12-05T05:56:02;99302.69;;;2.96;87.17
40155;BME280;25875;48.202;16.334;2022-12-05T05:58:29;99201.44;;;2.29;87.16
40155;BME280;25875;48.202;16.334;2022-12-05T06:01:01;99309.69;;;2.96;87.20
40155;BME280;25875;48.202;16.334;2022-12-05T06:03:28;99309.75;;;2.93;87.25
40155;BME280;25875;48.202;16.334;2022-12-05T06:05:56;99308.00;;;2.93;87.34
40155;BME280;25875;48.202;16.334;2022-12-05T06:08:23;99291.59;;;2.86;87.31
40155;BME280;25875;48.202;16.334;2022-12-05T06:10:49;99297.50;;;2.95;87.32
40155;BME280;25875;48.202;16.334;2022-12-05T06:13:18;99302.72;;;2.95;87.33
40155;BME280;25875;48.202;16.334;2022-12-05T06:15:44;99296.69;;;2.93;87.45
40155;BME280;25875;48.202;16.334;2022-12-05T06:18:11;99287.22;;;2.87;87.25
40155;BME280;25875;48.202;16.334;2022-12-05T06:20:38;99306.22;;;2.95;87.42
40155;BME280;25875;48.202;16.334;2022-12-05T06:23:05;99275.28;;;2.75;87.35
40155;BME280;25875;48.202;16.334;2022-12-05T06:25:31;99296.69;;;2.93;87.32
40155;BME280;25875;48.202;16.334;2022-12-05T06:27:58;99307.16;;;2.93;87.40
40155;BME280;25875;48.202;16.334;2022-12-05T06:30:26;99312.38;;;2.93;87.41
40155;BME280;25875;48.202;16.334;2022-12-05T06:32:53;99306.31;;;2.91;87.41
40155;BME280;25875;48.202;16.334;2022-12-05T06:35:20;99313.34;;;2.88;87.44
40155;BME280;25875;48.202;16.334;2022-12-05T06:37:47;99315.16;;;2.86;87.41
40155;BME280;25875;48.202;16.334;2022-12-05T06:40:14;99319.50;;;2.87;87.67
40155;BME280;25875;48.202;16.334;2022-12-05T06:42:40;99329.06;;;2.88;87.57
40155;BME280;25875;48.202;16.334;2022-12-05T06:45:09;99322.03;;;2.91;87.60
40155;BME280;25875;48.202;16.334;2022-12-05T06:47:37;99324.63;;;2.92;87.60
40155;BME280;25875;48.202;16.334;2022-12-05T06:50:05;99138.06;;;1.83;87.48
40155;BME280;25875;48.202;16.334;2022-12-05T06:52:32;99326.28;;;2.95;87.64
40155;BME280;25875;48.202;16.334;2022-12-05T06:54:58;99336.72;;;2.96;87.53
40155;BME280;25875;48.202;16.334;2022-12-05T06:57:27;99353.59;;;2.84;87.52
40155;BME280;25875;48.202;16.334;2022-12-05T06:59:54;99337.63;;;2.95;87.62
40155;BME280;25875;48.202;16.334;2022-12-05T07:02:43;99344.63;;;2.95;87.69
40155;BME280;25875;48.202;16.334;2022-12-05T07:05:09;99341.94;;;2.98;87.61
40155;BME280;25875;48.202;16.334;2022-12-05T07:07:36;99355.88;;;2.98;87.61
40155;BME280;25875;48.202;16.334;2022-12-05T07:10:04;99357.63;;;2.98;87.58
40155;BME280;25875;48.202;16.334;2022-12-05T07:12:32;99348.06;;;2.97;87.68
40155;BME280;25875;48.202;16.334;2022-12-05T07:14:59;99350.63;;;2.98;87.80
40155;BME280;25875;48.202;16.334;2022-12-05T07:17:26;99348.88;;;2.99;87.72
40155;BME280;25875;48.202;16.334;2022-12-05T07:19:54;99328.25;;;2.86;87.73
40155;BME280;25875;48.202;16.334;2022-12-05T07:22:22;99354.97;;;2.99;87.69
40155;BME280;25875;48.202;16.334;2022-12-05T07:24:50;99237.13;;;2.31;87.76
40155;BME280;25875;48.202;16.334;2022-12-05T07:27:17;99353.19;;;3.01;87.77
40155;BME280;25875;48.202;16.334;2022-12-05T07:29:44;99351.38;;;3.03;87.80
40155;BME280;25875;48.202;16.334;2022-12-05T07:32:11;99345.25;;;3.04;87.87
40155;BME280;25875;48.202;16.334;2022-12-05T07:34:38;99301.50;;;2.74;87.66
40155;BME280;25875;48.202;16.334;2022-12-05T07:37:08;99365.22;;;3.08;87.81
40155;BME280;25875;48.202;16.334;2022-12-05T07:39:34;99370.50;;;3.07;87.82
40155;BME280;25875;48.202;16.334;2022-12-05T07:42:02;99374.84;;;3.08;87.80
40155;BME280;25875;48.202;16.334;2022-12-05T07:44:29;99383.59;;;3.07;87.87
40155;BME280;25875;48.202;16.334;2022-12-05T07:46:56;99380.97;;;3.07;87.88
40155;BME280;25875;48.202;16.334;2022-12-05T07:49:23;99297.63;;;2.54;87.80
40155;BME280;25875;48.202;16.334;2022-12-05T07:51:50;99382.72;;;3.06;88.00
40155;BME280;25875;48.202;16.334;2022-12-05T07:54:18;99382.78;;;3.05;88.03
40155;BME280;25875;48.202;16.334;2022-12-05T07:56:45;99388.91;;;3.04;88.04
40155;BME280;25875;48.202;16.334;2022-12-05T07:59:12;99371.50;;;3.01;88.10
40155;BME280;25875;48.202;16.334;2022-12-05T08:01:39;99357.81;;;2.90;88.34
40155;BME280;25875;48.202;16.334;2022-12-05T08:04:05;99371.50;;;3.01;88.27
40155;BME280;25875;48.202;16.334;2022-12-05T08:06:32;99392.41;;;3.03;88.45
40155;BME280;25875;48.202;16.334;2022-12-05T08:08:59;99382.84;;;3.02;88.38
40155;BME280;25875;48.202;16.334;2022-12-05T08:11:28;99387.19;;;3.03;88.47
40155;BME280;25875;48.202;16.334;2022-12-05T08:13:56;99381.06;;;3.04;88.41
40155;BME280;25875;48.202;16.334;2022-12-05T08:16:25;99340.63;;;2.80;88.41
40155;BME280;25875;48.202;16.334;2022-12-05T08:18:53;99365.66;;;2.90;88.41
40155;BME280;25875;48.202;16.334;2022-12-05T08:21:21;99392.34;;;3.06;88.51
40155;BME280;25875;48.202;16.334;2022-12-05T08:23:49;99387.94;;;3.08;88.44
40155;BME280;25875;48.202;16.334;2022-12-05T08:26:18;99401.00;;;3.09;88.55
40155;BME280;25875;48.202;16.334;2022-12-05T08:28:50;99387.06;;;3.07;88.50
40155;BME280;25875;48.202;16.334;2022-12-05T08:31:18;99385.31;;;3.08;88.58
40155;BME280;25875;48.202;16.334;2022-12-05T08:33:45;99289.84;;;2.51;88.42
40155;BME280;25875;48.202;16.334;2022-12-05T08:36:13;99389.66;;;3.09;88.52
40155;BME280;25875;48.202;16.334;2022-12-05T08:38:41;99406.19;;;3.11;88.59
40155;BME280;25875;48.202;16.334;2022-12-05T08:41:10;99382.16;;;2.94;88.50
40155;BME280;25875;48.202;16.334;2022-12-05T08:43:36;99402.69;;;3.12;88.60
40155;BME280;25875;48.202;16.334;2022-12-05T08:46:05;99411.34;;;3.14;88.49
40155;BME280;25875;48.202;16.334;2022-12-05T08:48:33;99349.69;;;2.65;88.56
40155;BME280;25875;48.202;16.334;2022-12-05T08:51:04;99405.22;;;3.15;88.73
40155;BME280;25875;48.202;16.334;2022-12-05T08:53:31;99407.81;;;3.16;88.81
40155;BME280;25875;48.202;16.334;2022-12-05T08:55:59;99382.03;;;3.00;88.71
40155;BME280;25875;48.202;16.334;2022-12-05T08:58:26;99417.25;;;3.22;88.62
40155;BME280;25875;48.202;16.334;2022-12-05T09:00:53;99412.84;;;3.24;88.66
40155;BME280;25875;48.202;16.334;2022-12-05T09:03:22;99410.22;;;3.24;88.66
40155;BME280;25875;48.202;16.334;2022-12-05T09:05:49;99410.28;;;3.23;88.75
40155;BME280;25875;48.202;16.334;2022-12-05T09:08:15;99293.50;;;2.44;88.54
40155;BME280;25875;48.202;16.334;2022-12-05T09:10:42;99420.72;;;3.24;88.89
40155;BME280;25875;48.202;16.334;2022-12-05T09:13:09;99412.81;;;3.26;88.75
40155;BME280;25875;48.202;16.334;2022-12-05T09:15:38;99431.94;;;3.29;88.75
40155;BME280;25875;48.202;16.334;2022-12-05T09:18:05;99406.72;;;3.25;88.77
40155;BME280;25875;48.202;16.334;2022-12-05T09:20:33;99386.88;;;3.15;88.70
40155;BME280;25875;48.202;16.334;2022-12-05T09:23:00;99410.97;;;3.29;88.67
40155;BME280;25875;48.202;16.334;2022-12-05T09:25:26;99368.09;;;2.98;88.55
40155;BME280;25875;48.202;16.334;2022-12-05T09:27:53;99411.78;;;3.31;88.70
40155;BME280;25875;48.202;16.334;2022-12-05T09:30:20;99417.03;;;3.31;88.69
40155;BME280;25875;48.202;16.334;2022-12-05T09:32:47;99358.47;;;3.00;88.65
40155;BME280;25875;48.202;16.334;2022-12-05T09:35:14;99415.22;;;3.35;88.53
40155;BME280;25875;48.202;16.334;2022-12-05T09:37:43;99407.38;;;3.33;88.60
40155;BME280;25875;48.202;16.334;2022-12-05T09:40:14;99405.66;;;3.32;88.57
40155;BME280;25875;48.202;16.334;2022-12-05T09:42:51;99408.28;;;3.32;88.50
40155;BME280;25875;48.202;16.334;2022-12-05T09:45:23;99370.47;;;3.08;88.45
40155;BME280;25875;48.202;16.334;2022-12-05T09:47:55;99404.69;;;3.36;88.38
40155;BME280;25875;48.202;16.334;2022-12-05T09:50:27;99411.66;;;3.37;88.44
40155;BME280;25875;48.202;16.334;2022-12-05T09:53:04;99382.41;;;3.20;88.23
40155;BME280;25875;48.202;16.334;2022-12-05T09:55:39;99333.50;;;2.85;88.35
40155;BME280;25875;48.202;16.334;2022-12-05T09:58:18;99415.13;;;3.38;88.40
40155;BME280;25875;48.202;16.334;2022-12-05T10:00:47;99413.34;;;3.40;88.32
40155;BME280;25875;48.202;16.334;2022-12-05T10:03:21;99385.84;;;3.22;88.28
40155;BME280;25875;48.202;16.334;2022-12-05T10:05:57;99425.44;;;3.44;88.28
40155;BME280;25875;48.202;16.334;2022-12-05T10:08:33;98883.22;;;0.23;87.93
40155;BME280;25875;48.202;16.334;2022-12-05T10:11:11;99431.50;;;3.46;88.43
40155;BME280;25875;48.202;16.334;2022-12-05T10:13:47;99423.63;;;3.47;88.26
40155;BME280;25875;48.202;16.334;2022-12-05T10:16:31;99423.56;;;3.49;88.17
40155;BME280;25875;48.202;16.334;2022-12-05T10:19:02;99415.72;;;3.49;88.12
40155;BME280;25875;48.202;16.334;2022-12-05T10:21:32;99424.44;;;3.49;88.17
40155;BME280;25875;48.202;16.334;2022-12-05T10:24:09;98890.03;;;0.31;87.47
40155;BME280;25875;48.202;16.334;2022-12-05T10:26:42;99427.06;;;3.49;88.37
40155;BME280;25875;48.202;16.334;2022-12-05T10:29:18;99410.50;;;3.47;88.13
40155;BME280;25875;48.202;16.334;2022-12-05T10:31:47;99414.00;;;3.48;88.10
40155;BME280;25875;48.202;16.334;2022-12-05T10:34:18;99419.25;;;3.48;88.10
40155;BME280;25875;48.202;16.334;2022-12-05T10:36:54;99412.22;;;3.48;87.96
40155;BME280;25875;48.202;16.334;2022-12-05T10:39:24;99421.81;;;3.49;88.08
40155;BME280;25875;48.202;16.334;2022-12-05T10:41:51;99408.72;;;3.49;87.88
40155;BME280;25875;48.202;16.334;2022-12-05T10:44:18;99418.34;;;3.49;87.91
40155;BME280;25875;48.202;16.334;2022-12-05T10:46:45;99376.06;;;3.29;87.97
40155;BME280;25875;48.202;16.334;2022-12-05T10:49:12;99379.53;;;3.29;87.66
40155;BME280;25875;48.202;16.334;2022-12-05T10:51:39;99410.44;;;3.50;87.96
40155;BME280;25875;48.202;16.334;2022-12-05T10:54:15;99324.41;;;3.00;87.79
40155;BME280;25875;48.202;16.334;2022-12-05T10:56:45;99402.56;;;3.50;87.97
40155;BME280;25875;48.202;16.334;2022-12-05T10:59:14;99352.81;;;3.16;87.94
40155;BME280;25875;48.202;16.334;2022-12-05T11:01:47;99392.94;;;3.51;87.87
40155;BME280;25875;48.202;16.334;2022-12-05T11:04:26;99388.53;;;3.53;87.89
40155;BME280;25875;48.202;16.334;2022-12-05T11:06:58;99398.06;;;3.56;88.01
40155;BME280;25875;48.202;16.334;2022-12-05T11:09:27;99367.03;;;3.40;87.80
40155;BME280;25875;48.202;16.334;2022-12-05T11:12:11;99398.06;;;3.56;87.96
40155;BME280;25875;48.202;16.334;2022-12-05T11:14:52;98909.19;;;0.68;87.50
40155;BME280;25875;48.202;16.334;2022-12-05T11:17:23;99393.69;;;3.56;87.94
40155;BME280;25875;48.202;16.334;2022-12-05T11:19:51;99399.75;;;3.58;87.82
40155;BME280;25875;48.202;16.334;2022-12-05T11:22:18;99403.16;;;3.62;88.00
40155;BME280;25875;48.202;16.334;2022-12-05T11:24:44;99393.56;;;3.61;87.94
40155;BME280;25875;48.202;16.334;2022-12-05T11:27:26;99386.66;;;3.58;88.13
40155;BME280;25875;48.202;16.334;2022-12-05T11:29:57;99388.38;;;3.59;88.15
40155;BME280;25875;48.202;16.334;2022-12-05T11:32:25;99373.50;;;3.60;88.09
40155;BME280;25875;48.202;16.334;2022-12-05T11:34:56;99375.22;;;3.61;88.04
40155;BME280;25875;48.202;16.334;2022-12-05T11:37:26;99334.72;;;3.40;88.31
40155;BME280;25875;48.202;16.334;2022-12-05T11:39:54;99363.94;;;3.59;88.38
40155;BME280;25875;48.202;16.334;2022-12-05T11:42:30;99355.16;;;3.60;88.45
40155;BME280;25875;48.202;16.334;2022-12-05T11:45:15;99358.66;;;3.60;88.54
40155;BME280;25875;48.202;16.334;2022-12-05T11:47:57;99358.72;;;3.57;88.51
40155;BME280;25875;48.202;16.334;2022-12-05T11:50:35;99322.53;;;3.39;88.59
40155;BME280;25875;48.202;16.334;2022-12-05T11:53:15;99348.38;;;3.52;88.74
40155;BME280;25875;48.202;16.334;2022-12-05T11:55:47;99350.94;;;3.54;88.77
40155;BME280;25875;48.202;16.334;2022-12-05T11:58:32;99286.25;;;3.24;88.55
40155;BME280;25875;48.202;16.334;2022-12-05T12:01:10;99290.56;;;3.26;88.53
40155;BME280;25875;48.202;16.334;2022-12-05T12:06:47;99310.50;;;3.32;88.50
40155;BME280;25875;48.202;16.334;2022-12-05T12:09:30;99340.53;;;3.51;88.54
40155;BME280;25875;48.202;16.334;2022-12-05T12:12:04;99220.19;;;2.81;88.74
40155;BME280;25875;48.202;16.334;2022-12-05T12:14:42;99335.22;;;3.54;88.77
40155;BME280;25875;48.202;16.334;2022-12-05T12:17:18;99329.03;;;3.57;88.76
40155;BME280;25875;48.202;16.334;2022-12-05T12:19:57;99325.66;;;3.53;88.78
40155;BME280;25875;48.202;16.334;2022-12-05T12:22:40;99336.97;;;3.53;88.75
40155;BME280;25875;48.202;16.334;2022-12-05T12:25:24;99326.06;;;3.38;89.02
40155;BME280;25875;48.202;16.334;2022-12-05T12:28:02;99336.91;;;3.57;88.83
40155;BME280;25875;48.202;16.334;2022-12-05T12:30:44;99333.38;;;3.58;88.92
40155;BME280;25875;48.202;16.334;2022-12-05T12:33:22;99322.00;;;3.59;88.86
40155;BME280;25875;48.202;16.334;2022-12-05T12:35:56;99315.84;;;3.60;88.84
40155;BME280;25875;48.202;16.334;2022-12-05T12:38:46;99276.19;;;3.41;89.04
40155;BME280;25875;48.202;16.334;2022-12-05T12:41:29;99318.44;;;3.61;88.93
40155;BME280;25875;48.202;16.334;2022-12-05T12:44:05;99321.09;;;3.60;89.05
40155;BME280;25875;48.202;16.334;2022-12-05T12:46:43;99328.06;;;3.61;89.13
40155;BME280;25875;48.202;16.334;2022-12-05T12:49:29;99229.09;;;3.07;89.23
40155;BME280;25875;48.202;16.334;2022-12-05T12:52:02;99323.72;;;3.60;89.42
40155;BME280;25875;48.202;16.334;2022-12-05T12:54:42;99325.47;;;3.59;89.75
40155;BME280;25875;48.202;16.334;2022-12-05T12:57:17;99321.13;;;3.58;89.81
40155;BME280;25875;48.202;16.334;2022-12-05T12:59:57;99153.91;;;2.13;89.87
40155;BME280;25875;48.202;16.334;2022-12-05T13:02:33;99336.25;;;3.48;90.20
40155;BME280;25875;48.202;16.334;2022-12-05T13:05:05;99336.13;;;3.53;90.00
40155;BME280;25875;48.202;16.334;2022-12-05T13:07:35;99341.31;;;3.55;89.95
40155;BME280;25875;48.202;16.334;2022-12-05T13:10:12;99309.47;;;3.37;89.98
40155;BME280;25875;48.202;16.334;2022-12-05T13:12:43;99340.41;;;3.56;90.15
40155;BME280;25875;48.202;16.334;2022-12-05T13:15:14;99354.44;;;3.55;89.94
40155;BME280;25875;48.202;16.334;2022-12-05T13:17:46;99347.50;;;3.52;90.05
40155;BME280;25875;48.202;16.334;2022-12-05T13:20:17;99310.78;;;3.21;90.13
40155;BME280;25875;48.202;16.334;2022-12-05T13:22:44;99344.81;;;3.55;90.20
40155;BME280;25875;48.202;16.334;2022-12-05T13:25:13;99337.81;;;3.56;90.27